Time;durP1;ratioP1;P1;durP2;ratioP2;P2;SDS_P1;SDS_P2;PMS_P1;PMS_P2;Temp;Humidity;BMP_temperature;BMP_pressure;BME280_temperature;BME280_humidity;BME280_pressure;Samples;Min_cycle;Max_cycle;Signal;HPM_P1;HPM_P2
2021/04/02 00:00:35;;;;;;;;;;;;;;;-147.43;100.00;63088.53;5117130;28;1984;-56
2021/04/02 00:03:01;;;;;;;;;;;;;;;-147.43;100.00;63088.53;5116890;28;996;-56
2021/04/02 00:05:27;;;;;;;;;;;;;;;-147.43;100.00;63088.53;5116845;28;882;-56
2021/04/02 00:07:52;;;;;;;;;;;;;;;-147.43;100.00;63088.53;5117079;28;790;-61
2021/04/02 00:10:19;;;;;;;;;;;;;;;-147.43;100.00;63088.53;5116873;28;834;-58
2021/04/02 00:12:47;;;;;;;;;;;;;;;-147.43;100.00;63088.53;5116602;28;1133;-59
2021/04/02 00:15:14;;;;;;;;;;;;;;;-147.43;100.00;63088.53;5116895;28;778;-56
2021/04/02 00:17:39;;;;;;;;;;;;;;;-147.43;100.00;63088.53;5125963;27;927;-54
2021/04/02 00:20:08;;;;;;;;;;;;;;;-147.43;100.00;63088.53;5137104;27;1921;-58
2021/04/02 00:22:33;;;;;;;;;;;;;;;-147.43;100.00;63088.53;5136007;27;759;-57
2021/04/02 00:24:59;;;;;;;;;;;;;;;-147.43;100.00;63088.53;5119458;27;1124;-56
2021/04/02 00:27:24;;;;;;;;;;;;;;;-147.43;100.00;63088.53;5137304;27;779;-56
2021/04/02 00:29:50;;;;;;;;;;;;;;;-147.43;100.00;63088.53;5137622;27;751;-57
2021/04/02 00:32:18;;;;;;;;;;;;;;;-147.43;100.00;63088.53;5136791;27;933;-58
2021/04/02 00:34:44;;;;;;;;;;;;;;;-147.43;100.00;63088.53;5136812;27;735;-57
2021/04/02 00:37:09;;;;;;;;;;;;;;;-147.43;100.00;63088.53;5137302;27;826;-54
2021/04/02 00:39:34;;;;;;;;;;;;;;;-147.43;100.00;63088.53;5137302;27;1910;-57
2021/04/02 00:42:00;;;;;;;;;;;;;;;-147.43;100.00;63088.53;5136885;28;806;-56
2021/04/02 00:44:27;;;;;;;;;;;;;;;-147.43;100.00;63088.53;5137619;28;772;-56
2021/04/02 00:46:52;;;;;;;;;;;;;;;-147.43;100.00;63088.53;5135871;28;1350;-58
2021/04/02 00:49:17;;;;;;;;;;;;;;;-147.43;100.00;63088.53;5137019;28;733;-56
2021/04/02 00:51:43;;;;;;;;;;;;;;;-147.43;100.00;63088.53;5137001;28;990;-56
2021/04/02 00:54:08;;;;;;;;;;;;;;;-147.43;100.00;63088.53;5137182;28;782;-57
2021/04/02 00:56:34;;;;;;;;;;;;;;;-147.43;100.00;63088.53;5135676;28;1096;-58
2021/04/02 00:58:59;;;;;;;;;;;;;;;-147.43;100.00;63088.53;5135615;28;1984;-55
2021/04/02 01:01:26;;;;;;;;;;;;;;;-147.43;100.00;63088.53;5135710;28;1038;-56
2021/04/02 01:03:53;;;;;;;;;;;;;;;-147.43;100.00;63088.53;5136536;28;791;-58
2021/04/02 01:06:19;;;;;;;;;;;;;;;-147.43;100.00;63088.53;5137119;28;758;-62
2021/04/02 01:08:46;;;;;;;;;;;;;;;-147.43;100.00;63088.53;5137079;28;814;-58
2021/04/02 01:11:13;;;;;;;;;;;;;;;-147.43;100.00;63088.53;5135248;28;754;-58
2021/04/02 01:13:39;;;;;;;;;;;;;;;-147.43;100.00;63088.53;5117220;28;1209;-56
2021/04/02 01:16:14;;;;;;;;;;;;;;;-147.43;100.00;63088.53;5081810;28;1331;-60
2021/04/02 01:18:47;;;;;;;;;;;;;;;-147.43;100.00;63088.53;5114452;28;1457;-57
2021/04/02 01:21:13;;;;;;;;;;;;;;;-147.43;100.00;63088.53;5115300;28;1249;-55
2021/04/02 01:23:42;;;;;;;;;;;;;;;-147.43;100.00;63088.53;5119248;28;719;-58
2021/04/02 01:26:27;;;;;;;;;;;;;;;-147.43;100.00;63088.53;5119864;28;793;-59
2021/04/02 01:28:54;;;;;;;;;;;;;;;-147.43;100.00;63088.53;5119332;28;1231;-59
2021/04/02 01:31:21;;;;;;;;;;;;;;;-147.43;100.00;63088.53;5118949;28;1153;-59
2021/04/02 01:33:47;;;;;;;;;;;;;;;-147.43;100.00;63088.53;5117557;28;990;-56
2021/04/02 01:36:13;;;;;;;;;;;;;;;-147.43;100.00;63088.53;5118548;28;905;-53
2021/04/02 01:38:39;;;;;;;;;;;;;;;-147.43;100.00;63088.53;5118329;28;974;-56
2021/04/02 01:41:05;;;;;;;;;;;;;;;-147.43;100.00;63088.53;5101387;28;1910;-61
2021/04/02 01:43:33;;;;;;;;;;;;;;;-147.43;100.00;63088.53;5118425;28;1539;-60
2021/04/02 01:45:58;;;;;;;;;;;;;;;-147.43;100.00;63088.53;5118287;28;498;-57
2021/04/02 01:48:25;;;;;;;;;;;;;;;-147.43;100.00;63088.53;5117518;28;1304;-56
2021/04/02 01:50:52;;;;;;;;;;;;;;;-147.43;100.00;63088.53;5119663;28;1138;-57
2021/04/02 01:53:37;;;;;;;;;;;;;;;-147.43;100.00;63088.53;5118126;28;901;-55
2021/04/02 01:56:03;;;;;;;;;;;;;;;-147.43;100.00;63088.53;5119490;28;743;-60
2021/04/02 01:58:33;;;;;;;;;;;;;;;-147.43;100.00;63088.53;5102483;28;947;-58
2021/04/02 02:00:59;;;;;;;;;;;;;;;-147.43;100.00;63088.53;5101225;28;1988;-54
2021/04/02 02:03:32;;;;;;;;;;;;;;;-147.43;100.00;63088.53;5117349;28;966;-56
2021/04/02 02:06:03;;;;;;;;;;;;;;;-147.43;100.00;63088.53;5102227;28;1208;-55
2021/04/02 02:08:39;;;;;;;;;;;;;;;-147.43;100.00;63088.53;5102832;28;1129;-58
2021/04/02 02:11:12;;;;;;;;;;;;;;;-147.43;100.00;63088.53;5101031;28;1509;-58
2021/04/02 02:13:41;;;;;;;;;;;;;;;-147.43;100.00;63088.53;5118968;28;1269;-59
2021/04/02 02:16:16;;;;;;;;;;;;;;;-147.43;100.00;63088.53;5118325;28;1232;-58
2021/04/02 02:18:43;;;;;;;;;;;;;;;-147.43;100.00;63088.53;5120649;27;1314;-58
2021/04/02 02:21:09;;;;;;;;;;;;;;;-147.43;100.00;63088.53;5138241;27;1914;-58
2021/04/02 02:23:38;;;;;;;;;;;;;;;-147.43;100.00;63088.53;5138717;27;1234;-58
2021/04/02 02:26:04;;;;;;;;;;;;;;;-147.43;100.00;63088.53;5139726;27;794;-60
2021/04/02 02:28:31;;;;;;;;;;;;;;;-147.43;100.00;63088.53;5138456;27;923;-59
2021/04/02 02:30:56;;;;;;;;;;;;;;;-147.43;100.00;63088.53;5138547;27;1128;-59
2021/04/02 02:33:36;;;;;;;;;;;;;;;-147.43;100.00;63088.53;5122657;27;1109;-57
2021/04/02 02:36:10;;;;;;;;;;;;;;;-147.43;100.00;63088.53;5138174;27;1403;-62
2021/04/02 02:38:38;;;;;;;;;;;;;;;-147.43;100.00;63088.53;5138471;27;1140;-60
2021/04/02 02:41:03;;;;;;;;;;;;;;;-147.43;100.00;63088.53;5138055;27;1917;-59
2021/04/02 02:43:30;;;;;;;;;;;;;;;-147.43;100.00;63088.53;5121212;27;1180;-58
2021/04/02 02:45:56;;;;;;;;;;;;;;;-147.43;100.00;63088.53;5138664;27;1171;-58
2021/04/02 02:48:22;;;;;;;;;;;;;;;-147.43;100.00;63088.53;5137295;27;1217;-58
2021/04/02 02:50:50;;;;;;;;;;;;;;;-147.43;100.00;63088.53;5138051;27;1092;-57
2021/04/02 02:53:16;;;;;;;;;;;;;;;-147.43;100.00;63088.53;5137880;27;802;-56
2021/04/02 02:55:45;;;;;;;;;;;;;;;-147.43;100.00;63088.53;5138894;27;894;-55
2021/04/02 02:58:15;;;;;;;;;;;;;;;-147.43;100.00;63088.53;5105152;27;1228;-56
2021/04/02 03:00:41;;;;;;;;;;;;;;;-147.43;100.00;63088.53;5138981;27;1917;-54
2021/04/02 03:03:10;;;;;;;;;;;;;;;-147.43;100.00;63088.53;5119624;27;1176;-58
2021/04/02 03:05:36;;;;;;;;;;;;;;;-147.43;100.00;63088.53;5138939;27;755;-59
2021/04/02 03:08:02;;;;;;;;;;;;;;;-147.43;100.00;63088.53;5137511;27;790;-61
2021/04/02 03:10:29;;;;;;;;;;;;;;;-147.43;100.00;63088.53;5120105;27;1229;-58
2021/04/02 03:12:55;;;;;;;;;;;;;;;-147.43;100.00;63088.53;5124905;27;1035;-58
2021/04/02 03:15:21;;;;;;;;;;;;;;;-147.43;100.00;63088.53;5100071;28;1275;-59
2021/04/02 03:17:57;;;;;;;;;;;;;;;-147.43;100.00;63088.53;5115897;28;1427;-59
2021/04/02 03:20:23;;;;;;;;;;;;;;;-147.43;100.00;63088.53;5099715;28;2000;-59
2021/04/02 03:22:49;;;;;;;;;;;;;;;-147.43;100.00;63088.53;5117827;28;818;-59
2021/04/02 03:25:19;;;;;;;;;;;;;;;-147.43;100.00;63088.53;5118018;28;799;-59
2021/04/02 03:27:52;;;;;;;;;;;;;;;-147.43;100.00;63088.53;5117931;28;846;-59
2021/04/02 03:30:28;;;;;;;;;;;;;;;-147.43;100.00;63088.53;5099678;28;1309;-59
2021/04/02 03:32:56;;;;;;;;;;;;;;;-147.43;100.00;63088.53;5116086;28;998;-59
2021/04/02 03:35:22;;;;;;;;;;;;;;;-147.43;100.00;63088.53;5117933;28;808;-59
2021/04/02 03:37:48;;;;;;;;;;;;;;;-147.43;100.00;63088.53;5117577;28;739;-60
2021/04/02 03:40:16;;;;;;;;;;;;;;;-147.43;100.00;63088.53;5099230;28;1992;-60
2021/04/02 03:42:42;;;;;;;;;;;;;;;-147.43;100.00;63088.53;5117577;28;794;-64
2021/04/02 03:45:10;;;;;;;;;;;;;;;-147.43;100.00;63088.53;5099152;28;1426;-61
2021/04/02 03:47:36;;;;;;;;;;;;;;;-147.43;100.00;63088.53;5115110;28;1234;-50
2021/04/02 03:50:08;;;;;;;;;;;;;;;-147.43;100.00;63088.53;5099770;28;1356;-64
2021/04/02 03:52:36;;;;;;;;;;;;;;;-147.43;100.00;63088.53;5082456;28;1190;-65
2021/04/02 03:55:02;;;;;;;;;;;;;;;-147.43;100.00;63088.53;5117312;28;1586;-55
2021/04/02 03:57:28;;;;;;;;;;;;;;;-147.43;100.00;63088.53;5099041;28;756;-57
2021/04/02 03:59:56;;;;;;;;;;;;;;;-147.43;100.00;63088.53;5082708;28;1918;-62
2021/04/02 04:02:21;;;;;;;;;;;;;;;-147.43;100.00;63088.53;5098350;28;1135;-61
2021/04/02 04:04:50;;;;;;;;;;;;;;;-147.43;100.00;63088.53;5099186;28;1134;-62
2021/04/02 04:07:16;;;;;;;;;;;;;;;-147.43;100.00;63088.53;5099251;28;1137;-60
2021/04/02 04:09:43;;;;;;;;;;;;;;;-147.43;100.00;63088.53;5098804;28;988;-62
2021/04/02 04:12:12;;;;;;;;;;;;;;;-147.43;100.00;63088.53;5116902;28;1233;-60
2021/04/02 04:14:44;;;;;;;;;;;;;;;-147.43;100.00;63088.53;5099950;28;783;-63
2021/04/02 04:17:10;;;;;;;;;;;;;;;-147.43;100.00;63088.53;5096699;28;887;-59
2021/04/02 04:19:36;;;;;;;;;;;;;;;-147.43;100.00;63088.53;5080658;28;1995;-59
2021/04/02 04:22:07;;;;;;;;;;;;;;;-147.43;100.00;63088.53;5098764;28;1169;-59
2021/04/02 04:24:35;;;;;;;;;;;;;;;-147.43;100.00;63088.53;5080748;28;1239;-59
2021/04/02 04:27:02;;;;;;;;;;;;;;;-147.43;100.00;63088.53;5116790;28;775;-58
2021/04/02 04:29:29;;;;;;;;;;;;;;;-147.43;100.00;63088.53;5117107;28;743;-61
2021/04/02 04:31:54;;;;;;;;;;;;;;;-147.43;100.00;63088.53;5115741;28;942;-62
2021/04/02 04:34:20;;;;;;;;;;;;;;;-147.43;100.00;63088.53;5097871;28;1032;-61
2021/04/02 04:36:46;;;;;;;;;;;;;;;-147.43;100.00;63088.53;5098000;28;889;-61
2021/04/02 04:39:11;;;;;;;;;;;;;;;-147.43;100.00;63088.53;5098447;28;2001;-60
2021/04/02 04:41:36;;;;;;;;;;;;;;;-147.43;100.00;63088.53;5116868;28;743;-62
2021/04/02 04:44:03;;;;;;;;;;;;;;;-147.43;100.00;63088.53;5114304;28;867;-64
2021/04/02 04:46:29;;;;;;;;;;;;;;;-147.43;100.00;63088.53;5096639;28;859;-62
2021/04/02 04:48:54;;;;;;;;;;;;;;;-147.43;100.00;63088.53;5097435;28;1175;-66
2021/04/02 04:51:20;;;;;;;;;;;;;;;-147.43;100.00;63088.53;5116440;28;1193;-65
2021/04/02 04:53:45;;;;;;;;;;;;;;;-147.43;100.00;63088.53;5115742;28;810;-65
2021/04/02 04:56:11;;;;;;;;;;;;;;;-147.43;100.00;63088.53;5098009;28;896;-63
2021/04/02 04:58:38;;;;;;;;;;;;;;;-147.43;100.00;63088.53;5118555;28;806;-64
2021/04/02 05:01:04;;;;;;;;;;;;;;;-147.43;100.00;63088.53;5101957;28;1976;-63
2021/04/02 05:03:30;;;;;;;;;;;;;;;-147.43;100.00;63088.53;5120521;28;942;-62
2021/04/02 05:05:56;;;;;;;;;;;;;;;-147.43;100.00;63088.53;5101686;28;1037;-60
2021/04/02 05:08:23;;;;;;;;;;;;;;;-147.43;100.00;63088.53;5120390;28;858;-60
2021/04/02 05:10:49;;;;;;;;;;;;;;;-147.43;100.00;63088.53;5102374;28;767;-61
2021/04/02 05:13:15;;;;;;;;;;;;;;;-147.43;100.00;63088.53;5115323;27;1198;-59
2021/04/02 05:15:40;;;;;;;;;;;;;;;-147.43;100.00;63088.53;5133128;27;855;-60
2021/04/02 05:18:06;;;;;;;;;;;;;;;-147.43;100.00;63088.53;5084172;28;1049;-60
2021/04/02 05:20:37;;;;;;;;;;;;;;;-147.43;100.00;63088.53;5100199;28;1909;-62
2021/04/02 05:23:03;;;;;;;;;;;;;;;-147.43;100.00;63088.53;5119726;28;739;-60
2021/04/02 05:25:28;;;;;;;;;;;;;;;-147.43;100.00;63088.53;5120082;28;846;-62
2021/04/02 05:27:54;;;;;;;;;;;;;;;-147.43;100.00;63088.53;5120024;28;858;-59
2021/04/02 05:30:19;;;;;;;;;;;;;;;-147.43;100.00;63088.53;5100755;28;851;-60
2021/04/02 05:32:45;;;;;;;;;;;;;;;-147.43;100.00;63088.53;5119512;28;942;-65
2021/04/02 05:35:10;;;;;;;;;;;;;;;-147.43;100.00;63088.53;5119977;28;802;-65
2021/04/02 05:37:36;;;;;;;;;;;;;;;-147.43;100.00;63088.53;5119328;28;803;-64
2021/04/02 05:40:02;;;;;;;;;;;;;;;-147.43;100.00;63088.53;5119562;28;1985;-65
2021/04/02 05:42:27;;;;;;;;;;;;;;;-147.43;100.00;63088.53;5119651;28;827;-53
2021/04/02 05:44:52;;;;;;;;;;;;;;;-147.43;100.00;63088.53;5101246;28;1216;-57
2021/04/02 05:47:18;;;;;;;;;;;;;;;-147.43;100.00;63088.53;5119312;28;958;-56
2021/04/02 05:49:46;;;;;;;;;;;;;;;-147.43;100.00;63088.53;5119690;28;798;-60
2021/04/02 05:52:13;;;;;;;;;;;;;;;-147.43;100.00;63088.53;5099273;28;1074;-63
2021/04/02 05:54:44;;;;;;;;;;;;;;;-147.43;100.00;63088.53;5118796;28;764;-67
2021/04/02 05:57:09;;;;;;;;;;;;;;;-147.43;100.00;63088.53;5118185;28;771;-60
2021/04/02 05:59:35;;;;;;;;;;;;;;;-147.43;100.00;63088.53;5118060;28;1906;-66
2021/04/02 06:02:00;;;;;;;;;;;;;;;-147.43;100.00;63088.53;5099140;28;1048;-64
2021/04/02 06:04:26;;;;;;;;;;;;;;;-147.43;100.00;63088.53;5118388;28;855;-58
2021/04/02 06:06:51;;;;;;;;;;;;;;;-147.43;100.00;63088.53;5117824;28;851;-57
2021/04/02 06:09:17;;;;;;;;;;;;;;;-147.43;100.00;63088.53;5117889;28;807;-57
2021/04/02 06:11:42;;;;;;;;;;;;;;;-147.43;100.00;63088.53;5117598;28;910;-67
2021/04/02 06:14:08;;;;;;;;;;;;;;;-147.43;100.00;63088.53;5118067;28;695;-58
2021/04/02 06:16:34;;;;;;;;;;;;;;;-147.43;100.00;63088.53;5118050;28;934;-62
2021/04/02 06:19:09;;;;;;;;;;;;;;;-147.43;100.00;63088.53;5117816;28;1979;-50
2021/04/02 06:22:03;;;;;;;;;;;;;;;-147.43;100.00;63088.53;5117194;28;783;-59
2021/04/02 06:24:35;;;;;;;;;;;;;;;-147.43;100.00;63088.53;5095935;28;1460;-68
2021/04/02 06:27:01;;;;;;;;;;;;;;;-147.43;100.00;63088.53;5118095;28;851;-65
2021/04/02 06:29:27;;;;;;;;;;;;;;;-147.43;100.00;63088.53;5117568;28;787;-50
2021/04/02 06:31:54;;;;;;;;;;;;;;;-147.43;100.00;63088.53;5117158;28;993;-66
2021/04/02 06:34:20;;;;;;;;;;;;;;;-147.43;100.00;63088.53;5118063;28;728;-53
2021/04/02 06:36:46;;;;;;;;;;;;;;;-147.43;100.00;63088.53;5117645;28;859;-63
2021/04/02 06:39:12;;;;;;;;;;;;;;;-147.43;100.00;63088.53;5099534;28;1913;-67
2021/04/02 06:41:37;;;;;;;;;;;;;;;-147.43;100.00;63088.53;5117633;28;794;-54
2021/04/02 06:44:04;;;;;;;;;;;;;;;-147.43;100.00;63088.53;5116476;28;835;-63
2021/04/02 06:46:30;;;;;;;;;;;;;;;-147.43;100.00;63088.53;5115957;28;974;-64
2021/04/02 06:49:07;;;;;;;;;;;;;;;-147.43;100.00;63088.53;5097376;28;755;-60
2021/04/02 06:51:34;;;;;;;;;;;;;;;-147.43;100.00;63088.53;5072869;28;701801;-51
2021/04/02 06:53:59;;;;;;;;;;;;;;;-147.43;100.00;63088.53;5079720;28;751;-56
2021/04/02 06:56:25;;;;;;;;;;;;;;;-147.43;100.00;63088.53;5079680;28;883;-62
2021/04/02 06:58:50;;;;;;;;;;;;;;;-147.43;100.00;63088.53;5079987;28;1085;-64
2021/04/02 07:01:16;;;;;;;;;;;;;;;-147.43;100.00;63088.53;5079139;28;1910;-66
2021/04/02 07:03:42;;;;;;;;;;;;;;;-147.43;100.00;63088.53;5098447;28;978;-59
2021/04/02 07:06:07;;;;;;;;;;;;;;;-147.43;100.00;63088.53;5097333;28;760;-59
2021/04/02 07:08:33;;;;;;;;;;;;;;;-147.43;100.00;63088.53;5097488;28;847;-64
2021/04/02 07:10:59;;;;;;;;;;;;;;;-147.43;100.00;63088.53;5079937;28;1240;-52
2021/04/02 07:13:25;;;;;;;;;;;;;;;-147.43;100.00;63088.53;5113820;28;1146;-56
2021/04/02 07:15:50;;;;;;;;;;;;;;;-147.43;100.00;63088.53;5117802;28;887;-62
2021/04/02 07:18:15;;;;;;;;;;;;;;;-147.43;100.00;63088.53;5117585;28;966;-65
2021/04/02 07:20:41;;;;;;;;;;;;;;;-147.43;100.00;63088.53;5098412;28;1978;-64
2021/04/02 07:23:06;;;;;;;;;;;;;;;-147.43;100.00;63088.53;5117713;28;838;-59
2021/04/02 07:25:32;;;;;;;;;;;;;;;-147.43;100.00;63088.53;5099798;28;823;-58
2021/04/02 07:27:58;;;;;;;;;;;;;;;-147.43;100.00;63088.53;5117327;28;858;-65
2021/04/02 07:30:23;;;;;;;;;;;;;;;-147.43;100.00;63088.53;5117711;28;783;-59
2021/04/02 07:32:49;;;;;;;;;;;;;;;-147.43;100.00;63088.53;5117387;28;966;-58
2021/04/02 07:35:21;;;;;;;;;;;;;;;-147.43;100.00;63088.53;5117495;28;790;-65
2021/04/02 07:37:47;;;;;;;;;;;;;;;-147.43;100.00;63088.53;5117202;28;780;-67
2021/04/02 07:40:13;;;;;;;;;;;;;;;-147.43;100.00;63088.53;5117897;28;1974;-63
2021/04/02 07:42:38;;;;;;;;;;;;;;;-147.43;100.00;63088.53;5117471;28;823;-67
2021/04/02 07:45:05;;;;;;;;;;;;;;;-147.43;100.00;63088.53;5117315;28;775;-65
2021/04/02 07:47:30;;;;;;;;;;;;;;;-147.43;100.00;63088.53;5098203;28;1333;-68
2021/04/02 07:49:58;;;;;;;;;;;;;;;-147.43;100.00;63088.53;5117092;28;855;-59
2021/04/02 07:52:38;;;;;;;;;;;;;;;-147.43;100.00;63088.53;5116821;28;1169;-60
2021/04/02 07:55:05;;;;;;;;;;;;;;;-147.43;100.00;63088.53;5117566;28;749;-61
2021/04/02 07:57:31;;;;;;;;;;;;;;;-147.43;100.00;63088.53;5116599;28;824;-70
2021/04/02 07:59:56;;;;;;;;;;;;;;;-147.43;100.00;63088.53;5113025;27;1979;-59
2021/04/02 08:02:29;;;;;;;;;;;;;;;-147.43;100.00;63088.53;5129000;27;957;-53
2021/04/02 08:04:56;;;;;;;;;;;;;;;-147.43;100.00;63088.53;5116647;28;822;-51
2021/04/02 08:07:38;;;;;;;;;;;;;;;-147.43;100.00;63088.53;5117427;28;835;-61
2021/04/02 08:10:30;;;;;;;;;;;;;;;-147.43;100.00;63088.53;5117216;28;840;-59
2021/04/02 08:12:55;;;;;;;;;;;;;;;-147.43;100.00;63088.53;5112796;28;1313;-60
2021/04/02 08:15:22;;;;;;;;;;;;;;;-147.43;100.00;63088.53;5117284;28;750;-58
2021/04/02 08:17:47;;;;;;;;;;;;;;;-147.43;100.00;63088.53;5098221;28;970;-54
2021/04/02 08:20:17;;;;;;;;;;;;;;;-147.43;100.00;63088.53;5097472;28;1977;-62
2021/04/02 08:22:43;;;;;;;;;;;;;;;-147.43;100.00;63088.53;5116873;28;885;-60
2021/04/02 08:25:09;;;;;;;;;;;;;;;-147.43;100.00;63088.53;5116754;28;743;-58
2021/04/02 08:27:35;;;;;;;;;;;;;;;-147.43;100.00;63088.53;5116709;28;742;-60
2021/04/02 08:30:04;;;;;;;;;;;;;;;-147.43;100.00;63088.53;5117064;28;811;-56
2021/04/02 08:32:40;;;;;;;;;;;;;;;-147.43;100.00;63088.53;5106873;28;1015;-62
2021/04/02 08:35:06;;;;;;;;;;;;;;;-147.43;100.00;63088.53;5077912;28;839;-55
2021/04/02 08:37:31;;;;;;;;;;;;;;;-147.43;100.00;63088.53;5096280;28;755;-54
2021/04/02 08:39:57;;;;;;;;;;;;;;;-147.43;100.00;63088.53;5095894;28;1917;-54
2021/04/02 08:42:23;;;;;;;;;;;;;;;-147.43;100.00;63088.53;5095879;28;799;-61
2021/04/02 08:44:48;;;;;;;;;;;;;;;-147.43;100.00;63088.53;5078236;28;1334;-61
2021/04/02 08:47:14;;;;;;;;;;;;;;;-147.43;100.00;63088.53;5102647;28;962;-54
2021/04/02 08:49:40;;;;;;;;;;;;;;;-147.43;100.00;63088.53;5098161;28;771;-61
2021/04/02 08:52:09;;;;;;;;;;;;;;;-147.43;100.00;63088.53;5115204;28;1244;-56
2021/04/02 08:54:35;;;;;;;;;;;;;;;-147.43;100.00;63088.53;5116641;28;743;-67
2021/04/02 08:57:00;;;;;;;;;;;;;;;-147.43;100.00;63088.53;5116173;28;782;-60
2021/04/02 08:59:26;;;;;;;;;;;;;;;-147.43;100.00;63088.53;5116455;28;1906;-60
2021/04/02 09:01:51;;;;;;;;;;;;;;;-147.43;100.00;63088.53;5076733;28;1290;-61
2021/04/02 09:04:17;;;;;;;;;;;;;;;-147.43;100.00;63088.53;5077551;28;799;-62
2021/04/02 09:06:42;;;;;;;;;;;;;;;-147.43;100.00;63088.53;5096317;28;773;-63
2021/04/02 09:09:15;;;;;;;;;;;;;;;-147.43;100.00;63088.53;5078152;28;807;-62
2021/04/02 09:11:41;;;;;;;;;;;;;;;-147.43;100.00;63088.53;5097383;28;1169;-61
2021/04/02 09:14:10;;;;;;;;;;;;;;;-147.43;100.00;63088.53;5116005;28;823;-54
2021/04/02 09:16:36;;;;;;;;;;;;;;;-147.43;100.00;63088.53;5115876;28;1009;-59
2021/04/02 09:19:01;;;;;;;;;;;;;;;-147.43;100.00;63088.53;5115871;28;883;-59
2021/04/02 09:21:27;;;;;;;;;;;;;;;-147.43;100.00;63088.53;5097817;28;1918;-60
2021/04/02 09:23:53;;;;;;;;;;;;;;;-147.43;100.00;63088.53;5116634;28;823;-61
2021/04/02 09:26:20;;;;;;;;;;;;;;;-147.43;100.00;63088.53;5097727;28;823;-62
2021/04/02 09:28:47;;;;;;;;;;;;;;;-147.43;100.00;63088.53;5098052;28;1276;-62
2021/04/02 09:31:13;;;;;;;;;;;;;;;-147.43;100.00;63088.53;5116126;28;778;-62
2021/04/02 09:33:42;;;;;;;;;;;;;;;-147.43;100.00;63088.53;5115827;28;926;-59
2021/04/02 09:36:11;;;;;;;;;;;;;;;-147.43;100.00;63088.53;5116016;28;739;-59
2021/04/02 09:38:36;;;;;;;;;;;;;;;-147.43;100.00;63088.53;5116079;28;752;-59
2021/04/02 09:41:02;;;;;;;;;;;;;;;-147.43;100.00;63088.53;5115996;28;1917;-59
2021/04/02 09:43:38;;;;;;;;;;;;;;;-147.43;100.00;63088.53;5097395;28;939;-59
2021/04/02 09:46:04;;;;;;;;;;;;;;;-147.43;100.00;63088.53;5119570;28;871;-59
2021/04/02 09:48:29;;;;;;;;;;;;;;;-147.43;100.00;63088.53;5119449;28;962;-59
2021/04/02 09:50:55;;;;;;;;;;;;;;;-147.43;100.00;63088.53;5101078;28;1245;-59
2021/04/02 09:53:20;;;;;;;;;;;;;;;-147.43;100.00;63088.53;5101788;28;781;-59
2021/04/02 09:55:46;;;;;;;;;;;;;;;-147.43;100.00;63088.53;5119627;28;855;-59
2021/04/02 09:58:11;;;;;;;;;;;;;;;-147.43;100.00;63088.53;5118953;28;806;-59
2021/04/02 10:00:38;;;;;;;;;;;;;;;-147.43;100.00;63088.53;5119559;28;1913;-59
2021/04/02 10:03:10;;;;;;;;;;;;;;;-147.43;100.00;63088.53;5119223;28;1083;-59
2021/04/02 10:05:35;;;;;;;;;;;;;;;-147.43;100.00;63088.53;5100768;28;803;-60
2021/04/02 10:08:01;;;;;;;;;;;;;;;-147.43;100.00;63088.53;5119627;28;779;-59
2021/04/02 10:10:26;;;;;;;;;;;;;;;-147.43;100.00;63088.53;5119286;28;755;-59
2021/04/02 10:12:51;;;;;;;;;;;;;;;-147.43;100.00;63088.53;5118741;28;1134;-60
2021/04/02 10:15:17;;;;;;;;;;;;;;;-147.43;100.00;63088.53;5119283;28;823;-59
2021/04/02 10:17:43;;;;;;;;;;;;;;;-147.43;100.00;63088.53;5118493;28;961;-60
2021/04/02 10:20:09;;;;;;;;;;;;;;;-147.43;100.00;63088.53;5118745;28;1976;-59
2021/04/02 10:22:34;;;;;;;;;;;;;;;-147.43;100.00;63088.53;5101110;28;1093;-58
2021/04/02 10:25:00;;;;;;;;;;;;;;;-147.43;100.00;63088.53;5119337;28;811;-57
2021/04/02 10:27:26;;;;;;;;;;;;;;;-147.43;100.00;63088.53;5118611;28;846;-59
2021/04/02 10:29:51;;;;;;;;;;;;;;;-147.43;100.00;63088.53;5118961;28;855;-61
2021/04/02 10:32:17;;;;;;;;;;;;;;;-147.43;100.00;63088.53;5118392;28;926;-59
2021/04/02 10:34:42;;;;;;;;;;;;;;;-147.43;100.00;63088.53;5118777;28;763;-59
2021/04/02 10:37:08;;;;;;;;;;;;;;;-147.43;100.00;63088.53;5118901;28;806;-59
2021/04/02 10:39:34;;;;;;;;;;;;;;;-147.43;100.00;63088.53;5118984;28;1913;-59
2021/04/02 10:41:59;;;;;;;;;;;;;;;-147.43;100.00;63088.53;5099370;28;1470;-59
2021/04/02 10:44:24;;;;;;;;;;;;;;;-147.43;100.00;63088.53;5118735;28;739;-59
2021/04/02 10:46:50;;;;;;;;;;;;;;;-147.43;100.00;63088.53;5118549;28;973;-58
2021/04/02 10:49:16;;;;;;;;;;;;;;;-147.43;100.00;63088.53;5118388;28;747;-60
2021/04/02 10:51:42;;;;;;;;;;;;;;;-147.43;100.00;63088.53;5118426;28;1058;-60
2021/04/02 10:54:07;;;;;;;;;;;;;;;-147.43;100.00;63088.53;5118646;28;767;-59
2021/04/02 10:56:33;;;;;;;;;;;;;;;-147.43;100.00;63088.53;5134565;27;795;-60
2021/04/02 10:58:58;;;;;;;;;;;;;;;-147.43;100.00;63088.53;5139067;27;811;-60
2021/04/02 11:01:24;;;;;;;;;;;;;;;-147.43;100.00;63088.53;5138677;27;1978;-58
2021/04/02 11:03:49;;;;;;;;;;;;;;;-147.43;100.00;63088.53;5118195;28;945;-59
2021/04/02 11:06:15;;;;;;;;;;;;;;;-147.43;100.00;63088.53;5099703;28;906;-61
2021/04/02 11:08:40;;;;;;;;;;;;;;;-147.43;100.00;63088.53;5118086;28;783;-59
2021/04/02 11:11:05;;;;;;;;;;;;;;;-147.43;100.00;63088.53;5117935;28;799;-60
2021/04/02 11:13:31;;;;;;;;;;;;;;;-147.43;100.00;63088.53;5118012;28;1201;-60
2021/04/02 11:15:56;;;;;;;;;;;;;;;-147.43;100.00;63088.53;5098943;28;905;-57
2021/04/02 11:18:22;;;;;;;;;;;;;;;-147.43;100.00;63088.53;5066072;28;1142;-60
2021/04/02 11:20:47;;;;;;;;;;;;;;;-147.43;100.00;63088.53;5097521;28;1913;-59
2021/04/02 11:23:16;;;;;;;;;;;;;;;-147.43;100.00;63088.53;5097896;28;732;-60
2021/04/02 11:25:42;;;;;;;;;;;;;;;-147.43;100.00;63088.53;5097424;28;811;-61
2021/04/02 11:28:07;;;;;;;;;;;;;;;-147.43;100.00;63088.53;5097526;28;767;-60
2021/04/02 11:30:33;;;;;;;;;;;;;;;-147.43;100.00;63088.53;5097357;28;858;-60
2021/04/02 11:32:58;;;;;;;;;;;;;;;-147.43;100.00;63088.53;5096917;28;978;-59
2021/04/02 11:35:24;;;;;;;;;;;;;;;-147.43;100.00;63088.53;5097288;28;759;-57
2021/04/02 11:37:49;;;;;;;;;;;;;;;-147.43;100.00;63088.53;5097092;28;835;-60
2021/04/02 11:40:15;;;;;;;;;;;;;;;-147.43;100.00;63088.53;5078851;28;1909;-60
2021/04/02 11:42:40;;;;;;;;;;;;;;;-147.43;100.00;63088.53;5097254;28;783;-65
2021/04/02 11:45:06;;;;;;;;;;;;;;;-147.43;100.00;63088.53;5097067;28;772;-59
2021/04/02 11:47:31;;;;;;;;;;;;;;;-147.43;100.00;63088.53;5096701;28;1001;-60
2021/04/02 11:49:57;;;;;;;;;;;;;;;-147.43;100.00;63088.53;5096895;28;814;-59
2021/04/02 11:52:22;;;;;;;;;;;;;;;-147.43;100.00;63088.53;5096771;28;1032;-58
2021/04/02 11:54:48;;;;;;;;;;;;;;;-147.43;100.00;63088.53;5078644;28;847;-63
2021/04/02 11:57:13;;;;;;;;;;;;;;;-147.43;100.00;63088.53;5078629;28;1288;-59
2021/04/02 11:59:39;;;;;;;;;;;;;;;-147.43;100.00;63088.53;5096824;28;1917;-63
2021/04/02 12:02:04;;;;;;;;;;;;;;;-147.43;100.00;63088.53;5096222;28;966;-59
2021/04/02 12:04:30;;;;;;;;;;;;;;;-147.43;100.00;63088.53;5096877;28;824;-61
2021/04/02 12:06:55;;;;;;;;;;;;;;;-147.43;100.00;63088.53;5096726;28;780;-53
2021/04/02 12:09:20;;;;;;;;;;;;;;;-147.43;100.00;63088.53;5096420;28;743;-59
2021/04/02 12:11:46;;;;;;;;;;;;;;;-147.43;100.00;63088.53;5080680;28;1209;-58
2021/04/02 12:14:11;;;;;;;;;;;;;;;-147.43;100.00;63088.53;5117404;28;857;-61
2021/04/02 12:16:37;;;;;;;;;;;;;;;-147.43;100.00;63088.53;5098366;28;977;-59
2021/04/02 12:19:03;;;;;;;;;;;;;;;-147.43;100.00;63088.53;5116750;28;754;-58
2021/04/02 12:21:28;;;;;;;;;;;;;;;-147.43;100.00;63088.53;5116730;28;1929;-59
2021/04/02 12:23:54;;;;;;;;;;;;;;;-147.43;100.00;63088.53;5116410;28;819;-59
2021/04/02 12:26:19;;;;;;;;;;;;;;;-147.43;100.00;63088.53;5097710;28;883;-58
2021/04/02 12:28:44;;;;;;;;;;;;;;;-147.43;100.00;63088.53;5117322;28;752;-59
2021/04/02 12:31:10;;;;;;;;;;;;;;;-147.43;100.00;63088.53;5117023;28;758;-59